Monday, August 21, 2017, 8:02 AM EDT

KFYJ, West Point, Middle Peninsula Regional Airport

Location: Shacklefords, VA, United States Lat: 37.521
Local Time: 8:02 AM EDT (12:02 GMT) Lon: -76.764
Time Zone: US/Eastern Elev: 22 ft

Show me the last for .
Show Decoded

2017-08-21 07:35 METAR KFYJ 211135Z AUTO 00000KT 10SM SCT010 23/23 A3022 RMK AO2 T02330228 =
2017-08-21 07:15 METAR KFYJ 211115Z AUTO 00000KT 10SM SCT010 23/22 A3023 RMK AO2 T02250220 =
2017-08-21 06:55 METAR KFYJ 211055Z AUTO 00000KT 10SM CLR 22/22 A3022 RMK AO2 T02220217 =
2017-08-21 06:35 METAR KFYJ 211035Z AUTO 00000KT 7SM CLR 22/22 A3022 RMK AO2 T02210216 =
2017-08-21 06:10 METAR KFYJ 211010Z AUTO 00000KT 10SM SCT012 21/21 A3021 RMK AO2 T02130208 =
2017-08-21 05:55 METAR KFYJ 210955Z AUTO 00000KT 10SM SCT012 22/22 A3021 RMK AO2 P0001 T02220216
                 =
2017-08-21 05:35 METAR KFYJ 210935Z AUTO 00000KT 10SM CLR 22/22 A3021 RMK AO2 P0001 T02230218 =
2017-08-21 05:15 METAR KFYJ 210915Z AUTO 00000KT 10SM CLR 22/22 A3020 RMK AO2 P0001 T02230218 =
2017-08-21 04:55 METAR KFYJ 210855Z AUTO 00000KT 10SM CLR 22/22 A3019 RMK AO2 T02220216 =
2017-08-21 04:35 METAR KFYJ 210835Z AUTO 00000KT 7SM CLR 22/22 A3019 RMK AO2 T02210215 =
2017-08-21 04:15 METAR KFYJ 210815Z AUTO 00000KT 10SM CLR 23/22 A3019 RMK AO2 T02260220 =
2017-08-21 03:55 METAR KFYJ 210755Z AUTO 07003KT 10SM CLR 23/22 A3019 RMK AO2 T02270220 =
2017-08-21 03:35 METAR KFYJ 210735Z AUTO 06003KT 10SM CLR 23/22 A3019 RMK AO2 T02280220 =
2017-08-21 03:15 METAR KFYJ 210715Z AUTO 00000KT 10SM CLR 23/22 A3019 RMK AO2 T02250217 =
2017-08-21 02:55 METAR KFYJ 210655Z AUTO 00000KT 10SM CLR 23/22 A3019 RMK AO2 T02260219 =
2017-08-21 02:35 METAR KFYJ 210635Z AUTO 00000KT 10SM CLR 23/22 A3019 RMK AO2 T02260218 =
2017-08-21 02:15 METAR KFYJ 210615Z AUTO 00000KT 10SM CLR 23/22 A3019 RMK AO2 T02280220 =
2017-08-21 01:55 METAR KFYJ 210555Z AUTO 00000KT 10SM SCT037 22/22 A3020 RMK AO2 T02220215 10252
                 20220 403160196 =
2017-08-21 01:35 METAR KFYJ 210535Z AUTO 00000KT 10SM SCT037 SCT120 22/21 A3020 RMK AO2 T02200210
                 =
2017-08-21 01:15 METAR KFYJ 210515Z AUTO 00000KT 10SM SCT035 SCT120 23/21 A3021 RMK AO2 T02250214
                 =
2017-08-21 00:55 METAR KFYJ 210455Z AUTO 00000KT 10SM SCT035 22/21 A3020 RMK AO2 T02240214 =
2017-08-21 00:35 METAR KFYJ 210435Z AUTO 00000KT 10SM CLR 22/21 A3020 RMK AO2 T02220210 =
2017-08-21 00:15 METAR KFYJ 210415Z AUTO 06003KT 10SM SCT036 22/21 A3020 RMK AO2 T02210207 =
2017-08-20 23:55 METAR KFYJ 210355Z AUTO 00000KT 10SM CLR 22/21 A3020 RMK AO2 T02200206 =
2017-08-20 23:35 METAR KFYJ 210335Z AUTO 00000KT 10SM CLR 22/21 A3020 RMK AO2 T02230205 =
2017-08-20 23:15 METAR KFYJ 210315Z AUTO 00000KT 10SM CLR 23/20 A3020 RMK AO2 T02250204 =
2017-08-20 22:55 METAR KFYJ 210255Z AUTO 00000KT 10SM CLR 22/20 A3020 RMK AO2 T02210201 =
2017-08-20 22:35 METAR KFYJ 210235Z AUTO 00000KT 10SM CLR 22/20 A3019 RMK AO2 T02200198 =
2017-08-20 22:15 METAR KFYJ 210215Z AUTO 00000KT 10SM CLR 23/20 A3019 RMK AO2 T02260197 =
2017-08-20 21:55 METAR KFYJ 210155Z AUTO 08003KT 10SM CLR 23/20 A3019 RMK AO2 T02300195 =
2017-08-20 21:35 METAR KFYJ 210135Z AUTO 11004KT 10SM CLR 23/19 A3018 RMK AO2 T02260192 =
2017-08-20 21:15 METAR KFYJ 210115Z AUTO 10005KT 10SM CLR 23/19 A3017 RMK AO2 T02320193 =
2017-08-20 20:55 METAR KFYJ 210055Z AUTO 10004KT 10SM CLR 23/20 A3017 RMK AO2 T02300195 =
2017-08-20 20:35 METAR KFYJ 210035Z AUTO 08004KT 10SM CLR 24/20 A3016 RMK AO2 T02370198 =
2017-08-20 20:15 METAR KFYJ 210015Z AUTO 08003KT 10SM CLR 25/20 A3015 RMK AO2 T02450200 =
2017-08-20 19:55 METAR KFYJ 202355Z AUTO 00000KT 10SM CLR 25/20 A3014 RMK AO2 T02530200 10316
                 20253 =
2017-08-20 19:30 METAR KFYJ 202330Z AUTO 10004KT 10SM CLR 26/19 A3014 RMK AO2 T02620194 =
2017-08-20 19:15 METAR KFYJ 202315Z AUTO 08005KT 10SM CLR 27/20 A3014 RMK AO2 T02700198 =
2017-08-20 18:55 METAR KFYJ 202255Z AUTO 10006KT 10SM CLR 28/19 A3013 RMK AO2 T02800192 =
2017-08-20 18:30 METAR KFYJ 202230Z AUTO 11007KT 10SM CLR 29/20 A3013 RMK AO2 T02870199 =
2017-08-20 18:15 METAR KFYJ 202215Z AUTO 08007KT 10SM CLR 29/20 A3012 RMK AO2 T02910201 =
2017-08-20 17:55 METAR KFYJ 202155Z AUTO 08005KT 10SM CLR 30/20 A3011 RMK AO2 T02950201 =
2017-08-20 17:35 METAR KFYJ 202135Z AUTO 08007KT 10SM SCT041 30/20 A3011 RMK AO2 T03000199 =
2017-08-20 17:15 METAR KFYJ 202115Z AUTO 04003KT 10SM SCT041 31/20 A3011 RMK AO2 T03070202 =
2017-08-20 16:55 METAR KFYJ 202055Z AUTO 08005KT 10SM SCT043 31/20 A3011 RMK AO2 T03060196 =
2017-08-20 16:35 METAR KFYJ 202035Z AUTO 08006KT 10SM SCT043 31/20 A3011 RMK AO2 T03110195 =
2017-08-20 16:15 METAR KFYJ 202015Z AUTO 09003KT 10SM SCT043 30/19 A3011 RMK AO2 T03040192 =
2017-08-20 15:55 METAR KFYJ 201955Z AUTO 08006KT 10SM SCT047 31/20 A3011 RMK AO2 T03130198 =
2017-08-20 15:35 METAR KFYJ 201935Z AUTO 01003KT 10SM SCT045 SCT050 31/19 A3011 RMK AO2 T03100191
                 =
2017-08-20 15:15 METAR KFYJ 201915Z AUTO 08005KT 10SM SCT043 31/19 A3012 RMK AO2 T03140192 =
2017-08-20 14:55 METAR KFYJ 201855Z AUTO 03003KT 10SM CLR 31/19 A3012 RMK AO2 T03100190 =
2017-08-20 14:35 METAR KFYJ 201835Z AUTO 00000KT 10SM CLR 31/19 A3013 RMK AO2 T03110190 =
2017-08-20 14:15 METAR KFYJ 201815Z AUTO 01003KT 10SM CLR 31/19 A3013 RMK AO2 T03080185 =
2017-08-20 13:55 METAR KFYJ 201755Z AUTO 36004KT 10SM CLR 31/18 A3013 RMK AO2 T03070184 10308
                 20230 =
2017-08-20 13:35 METAR KFYJ 201735Z AUTO 36004KT 10SM CLR 31/19 A3013 RMK AO2 T03050185 =
2017-08-20 13:15 METAR KFYJ 201715Z AUTO 36004KT 10SM CLR 30/18 A3013 RMK AO2 T03030182 =
2017-08-20 12:55 METAR KFYJ 201655Z AUTO 32003KT 10SM CLR 31/19 A3013 RMK AO2 T03060186 =
2017-08-20 12:35 METAR KFYJ 201635Z AUTO 06004KT 10SM CLR 30/18 A3013 RMK AO2 T03010179 =
2017-08-20 12:15 METAR KFYJ 201615Z AUTO 06004KT 10SM CLR 30/18 A3013 RMK AO2 T03000181 =
2017-08-20 11:55 METAR KFYJ 201555Z AUTO 00000KT 10SM CLR 29/18 A3014 RMK AO2 T02940183 =
2017-08-20 11:35 METAR KFYJ 201535Z AUTO 02003KT 10SM CLR 29/18 A3013 RMK AO2 T02900183 =
2017-08-20 11:15 METAR KFYJ 201515Z AUTO 06004KT 10SM CLR 29/19 A3013 RMK AO2 T02900192 =
2017-08-20 10:55 METAR KFYJ 201455Z AUTO 03004KT 10SM CLR 28/19 A3013 RMK AO2 T02840191 =
2017-08-20 10:35 METAR KFYJ 201435Z AUTO 06005KT 10SM CLR 28/19 A3012 RMK AO2 T02780190 =
2017-08-20 10:15 METAR KFYJ 201415Z AUTO 02004KT 10SM CLR 27/19 A3012 RMK AO2 T02710190 =
2017-08-20 09:55 METAR KFYJ 201355Z AUTO 03006KT 10SM CLR 27/19 A3012 RMK AO2 T02650193 =
2017-08-20 09:35 METAR KFYJ 201335Z AUTO 02005KT 10SM CLR 26/20 A3012 RMK AO2 T02640195 =
2017-08-20 09:15 METAR KFYJ 201315Z AUTO 01004KT 10SM CLR 26/19 A3011 RMK AO2 T02580193 =
2017-08-20 08:55 METAR KFYJ 201255Z AUTO 02006KT 10SM CLR 25/20 A3011 RMK AO2 T02500196 =
2017-08-20 08:35 METAR KFYJ 201235Z AUTO 02006KT 10SM CLR 24/20 A3010 RMK AO2 T02440198 =
2017-08-20 08:15 METAR KFYJ 201215Z AUTO 02003KT 10SM CLR 24/21 A3010 RMK AO2 T02370214 =

Support USWX by starting your Amazon purchase here.